createdAt,value
2022-12-04T00:01:20.218Z,2.90
2022-12-04T00:03:48.236Z,2.90
2022-12-04T00:06:18.722Z,2.80
2022-12-04T00:08:47.471Z,2.80
2022-12-04T00:11:17.648Z,2.80
2022-12-04T00:13:46.192Z,2.80
2022-12-04T00:16:17.552Z,2.90
2022-12-04T00:18:46.004Z,2.90
2022-12-04T00:21:16.015Z,2.90
2022-12-04T00:23:44.553Z,2.90
2022-12-04T00:26:14.361Z,3.00
2022-12-04T00:28:43.211Z,2.90
2022-12-04T00:31:13.858Z,2.90
2022-12-04T00:33:43.515Z,2.90
2022-12-04T00:36:14.036Z,2.90
2022-12-04T00:38:42.735Z,2.90
2022-12-04T00:41:11.578Z,2.90
2022-12-04T00:43:39.621Z,2.90
2022-12-04T00:46:08.023Z,2.90
2022-12-04T00:48:36.564Z,2.90
2022-12-04T00:51:06.127Z,2.90
2022-12-04T00:53:34.294Z,2.90
2022-12-04T00:56:05.254Z,2.90
2022-12-04T00:58:33.136Z,2.90
2022-12-04T01:01:04.437Z,2.80
2022-12-04T01:03:32.674Z,2.90
2022-12-04T01:06:01.206Z,2.90
2022-12-04T01:08:30.597Z,3.00
2022-12-04T01:10:58.484Z,2.90
2022-12-04T01:13:27.905Z,2.90
2022-12-04T01:15:55.799Z,2.90
2022-12-04T01:18:23.730Z,2.90
2022-12-04T01:20:53.513Z,2.90
2022-12-04T01:23:21.627Z,2.90
2022-12-04T01:25:55.036Z,2.90
2022-12-04T01:28:23.583Z,2.90
2022-12-04T01:31:03.278Z,2.90
2022-12-04T01:33:32.083Z,2.90
2022-12-04T01:36:01.623Z,2.90
2022-12-04T01:38:29.767Z,2.90
2022-12-04T01:40:59.581Z,2.90
2022-12-04T01:43:30.410Z,2.90
2022-12-04T01:45:59.206Z,2.90
2022-12-04T01:48:30.867Z,2.90
2022-12-04T01:51:05.442Z,2.90
2022-12-04T01:53:36.057Z,3.00
2022-12-04T01:56:05.966Z,3.00
2022-12-04T01:58:38.163Z,3.00
2022-12-04T02:01:09.078Z,3.00
2022-12-04T02:03:37.657Z,3.00
2022-12-04T02:06:05.842Z,3.00
2022-12-04T02:08:35.274Z,3.00
2022-12-04T02:11:14.038Z,3.10
2022-12-04T02:13:52.978Z,3.10
2022-12-04T02:16:26.049Z,3.00
2022-12-04T02:19:01.985Z,3.10
2022-12-04T02:21:35.214Z,3.10
2022-12-04T02:24:29.660Z,3.10
2022-12-04T02:27:03.488Z,3.10
2022-12-04T02:29:39.950Z,3.10
2022-12-04T02:32:17.203Z,3.10
2022-12-04T02:34:54.062Z,3.10
2022-12-04T02:37:27.287Z,3.10
2022-12-04T02:40:00.579Z,3.00
2022-12-04T02:42:36.014Z,3.10
2022-12-04T02:45:09.799Z,3.10
2022-12-04T02:47:40.781Z,3.10
2022-12-04T02:50:13.120Z,3.10
2022-12-04T02:52:44.345Z,3.10
2022-12-04T02:55:16.586Z,3.10
2022-12-04T02:57:49.786Z,3.10
2022-12-04T03:00:20.738Z,3.10
2022-12-04T03:02:53.366Z,3.20
2022-12-04T03:05:25.374Z,3.20
2022-12-04T03:07:58.357Z,3.20
2022-12-04T03:10:31.640Z,3.20
2022-12-04T03:13:04.262Z,3.20
2022-12-04T03:15:38.483Z,3.10
2022-12-04T03:18:12.311Z,3.10
2022-12-04T03:20:41.260Z,3.10
2022-12-04T03:23:15.612Z,3.10
2022-12-04T03:25:52.223Z,3.00
2022-12-04T03:28:26.854Z,3.00
2022-12-04T03:31:00.392Z,3.00
2022-12-04T03:33:35.559Z,3.00
2022-12-04T03:36:12.019Z,3.00
2022-12-04T03:38:45.042Z,3.10
2022-12-04T03:41:20.503Z,3.10
2022-12-04T03:43:52.969Z,3.10
2022-12-04T03:46:27.368Z,3.10
2022-12-04T03:49:03.164Z,3.10
2022-12-04T03:51:35.314Z,3.20
2022-12-04T03:54:08.688Z,3.20
2022-12-04T03:56:40.465Z,3.30
2022-12-04T03:59:12.437Z,3.30
2022-12-04T04:01:46.644Z,3.30
2022-12-04T04:04:19.135Z,3.30
2022-12-04T04:06:54.266Z,3.40
2022-12-04T04:09:26.138Z,3.30
2022-12-04T04:12:01.468Z,3.40
2022-12-04T04:14:51.507Z,3.30
2022-12-04T04:17:43.868Z,3.30
2022-12-04T04:20:46.425Z,3.30
2022-12-04T04:23:33.360Z,3.30
2022-12-04T04:26:03.845Z,3.30
2022-12-04T04:28:33.495Z,3.30
2022-12-04T04:31:09.871Z,3.20
2022-12-04T04:33:46.539Z,3.20
2022-12-04T04:36:22.973Z,3.20
2022-12-04T04:39:00.818Z,3.30
2022-12-04T04:41:34.759Z,3.20
2022-12-04T04:44:12.476Z,3.20
2022-12-04T04:46:46.378Z,3.20
2022-12-04T04:49:16.976Z,3.20
2022-12-04T04:51:46.401Z,3.20
2022-12-04T04:54:17.694Z,3.20
2022-12-04T04:56:47.647Z,3.20
2022-12-04T04:59:16.387Z,3.20
2022-12-04T05:01:46.679Z,3.30
2022-12-04T05:04:16.027Z,3.20
2022-12-04T05:06:43.899Z,3.30
2022-12-04T05:09:11.758Z,3.30
2022-12-04T05:11:39.649Z,3.30
2022-12-04T05:14:09.176Z,3.30
2022-12-04T05:16:37.395Z,3.40
2022-12-04T05:19:23.024Z,3.40
2022-12-04T05:21:52.196Z,3.30
2022-12-04T05:24:20.097Z,3.30
2022-12-04T05:26:47.945Z,3.30
2022-12-04T05:29:15.828Z,3.20
2022-12-04T05:31:43.908Z,3.20
2022-12-04T05:34:11.824Z,3.20
2022-12-04T05:36:39.687Z,3.10
2022-12-04T05:39:08.859Z,3.10
2022-12-04T05:41:36.771Z,3.10
2022-12-04T05:44:04.699Z,3.10
2022-12-04T05:46:32.585Z,3.10
2022-12-04T05:49:00.521Z,3.10
2022-12-04T05:51:29.272Z,3.10
2022-12-04T05:53:57.146Z,3.20
2022-12-04T05:56:26.372Z,3.20
2022-12-04T05:58:54.243Z,3.30
2022-12-04T06:01:24.483Z,3.30
2022-12-04T06:03:52.442Z,3.20
2022-12-04T06:06:22.741Z,3.20
2022-12-04T06:08:51.331Z,3.20
2022-12-04T06:11:22.771Z,3.10
2022-12-04T06:13:52.250Z,3.10
2022-12-04T06:16:22.545Z,3.10
2022-12-04T06:18:52.430Z,3.10
2022-12-04T06:21:20.974Z,3.10
2022-12-04T06:23:49.170Z,3.10
2022-12-04T06:26:17.367Z,3.10
2022-12-04T06:28:45.342Z,3.10
2022-12-04T06:31:16.442Z,3.20
2022-12-04T06:33:44.562Z,3.20
2022-12-04T06:36:14.375Z,3.20
2022-12-04T06:38:42.624Z,3.20
2022-12-04T06:41:13.051Z,3.30
2022-12-04T06:43:41.868Z,3.40
2022-12-04T06:46:11.580Z,3.40
2022-12-04T06:48:41.563Z,3.40
2022-12-04T06:51:11.477Z,3.40
2022-12-04T06:53:40.171Z,3.40
2022-12-04T06:56:10.273Z,3.40
2022-12-04T06:58:38.795Z,3.50
2022-12-04T07:01:11.535Z,3.40
2022-12-04T07:03:44.865Z,3.40
2022-12-04T07:06:19.599Z,3.50
2022-12-04T07:08:51.552Z,3.60
2022-12-04T07:11:19.947Z,3.60
2022-12-04T07:13:48.206Z,3.60
2022-12-04T07:16:18.386Z,3.60
2022-12-04T07:18:50.257Z,3.50
2022-12-04T07:21:19.576Z,3.60
2022-12-04T07:23:50.375Z,3.50
2022-12-04T07:26:18.638Z,3.50
2022-12-04T07:28:46.641Z,3.50
2022-12-04T07:31:16.656Z,3.50
2022-12-04T07:33:45.414Z,3.60
2022-12-04T07:36:16.422Z,3.60
2022-12-04T07:38:44.684Z,3.60
2022-12-04T07:41:13.981Z,3.60
2022-12-04T07:43:43.111Z,3.60
2022-12-04T07:46:13.599Z,3.60
2022-12-04T07:48:42.146Z,3.70
2022-12-04T07:51:12.008Z,3.70
2022-12-04T07:53:41.956Z,3.60
2022-12-04T07:56:11.217Z,3.60
2022-12-04T07:58:39.520Z,3.60
2022-12-04T08:01:09.504Z,3.70
2022-12-04T08:03:42.123Z,3.60
2022-12-04T08:06:13.365Z,3.60
2022-12-04T08:08:42.577Z,3.50
2022-12-04T08:11:12.890Z,3.50
2022-12-04T08:13:40.950Z,3.60
2022-12-04T08:16:10.921Z,3.60
2022-12-04T08:18:39.911Z,3.60
2022-12-04T08:21:09.799Z,3.60
2022-12-04T08:23:38.530Z,3.60
2022-12-04T08:26:08.889Z,3.60
2022-12-04T08:28:36.853Z,3.70
2022-12-04T08:31:05.956Z,3.70
2022-12-04T08:33:34.560Z,3.70
2022-12-04T08:36:02.553Z,3.70
2022-12-04T08:38:30.510Z,3.70
2022-12-04T08:41:01.075Z,3.70
2022-12-04T08:43:30.773Z,3.70
2022-12-04T08:45:59.959Z,3.60
2022-12-04T08:48:28.614Z,3.60
2022-12-04T08:50:57.138Z,3.70
2022-12-04T08:53:25.397Z,3.70
2022-12-04T08:55:54.008Z,3.70
2022-12-04T08:58:22.162Z,3.80
2022-12-04T09:00:51.543Z,3.80
2022-12-04T09:03:26.102Z,3.80
2022-12-04T09:06:00.199Z,3.70
2022-12-04T09:08:28.214Z,3.70
2022-12-04T09:10:56.110Z,3.70
2022-12-04T09:13:23.986Z,3.70
2022-12-04T09:15:53.442Z,3.80
2022-12-04T09:18:21.431Z,3.80
2022-12-04T09:20:57.131Z,3.90
2022-12-04T09:23:25.438Z,3.90
2022-12-04T09:25:53.344Z,3.90
2022-12-04T09:28:21.492Z,3.90
2022-12-04T09:30:59.580Z,3.80
2022-12-04T09:33:27.983Z,3.80
2022-12-04T09:35:56.028Z,3.90
2022-12-04T09:38:23.856Z,3.90
2022-12-04T09:41:00.227Z,3.90
2022-12-04T09:43:35.834Z,4.00
2022-12-04T09:46:11.100Z,4.00
2022-12-04T09:48:42.508Z,4.00
2022-12-04T09:51:18.643Z,4.10
2022-12-04T09:53:49.668Z,4.20
2022-12-04T09:56:20.687Z,4.20
2022-12-04T09:58:54.022Z,4.20
2022-12-04T10:01:28.605Z,4.30
2022-12-04T10:04:02.655Z,4.20
2022-12-04T10:06:41.323Z,4.20
2022-12-04T10:09:17.699Z,4.20
2022-12-04T10:11:52.825Z,4.20
2022-12-04T10:14:43.607Z,4.30
2022-12-04T10:17:33.143Z,4.40
2022-12-04T10:20:10.224Z,4.40
2022-12-04T10:22:49.549Z,4.50
2022-12-04T10:25:21.767Z,4.40
2022-12-04T10:27:54.187Z,4.30
2022-12-04T10:30:24.448Z,4.30
2022-12-04T10:32:58.070Z,4.30
2022-12-04T10:35:29.369Z,4.30
2022-12-04T10:37:59.327Z,4.40
2022-12-04T10:40:32.416Z,4.40
2022-12-04T10:43:07.339Z,4.40
2022-12-04T10:45:35.241Z,4.40
2022-12-04T10:48:07.964Z,4.40
2022-12-04T10:50:35.985Z,4.30
2022-12-04T10:53:03.834Z,4.20
2022-12-04T10:55:34.511Z,4.10
2022-12-04T10:58:03.029Z,4.20
2022-12-04T11:00:33.779Z,4.20
2022-12-04T11:03:05.128Z,4.20
2022-12-04T11:05:36.457Z,4.20
2022-12-04T11:08:07.501Z,4.10
2022-12-04T11:10:38.394Z,4.10
2022-12-04T11:13:08.539Z,4.10
2022-12-04T11:15:44.015Z,4.10
2022-12-04T11:18:19.475Z,4.20
2022-12-04T11:20:53.152Z,4.20
2022-12-04T11:23:21.629Z,4.30
2022-12-04T11:25:51.441Z,4.30
2022-12-04T11:28:40.521Z,4.30
2022-12-04T11:31:11.797Z,4.30
2022-12-04T11:33:47.290Z,4.40
2022-12-04T11:36:24.841Z,4.40
2022-12-04T11:38:54.485Z,4.40
2022-12-04T11:41:27.598Z,4.30
2022-12-04T11:43:59.949Z,4.40
2022-12-04T11:46:30.674Z,4.40
2022-12-04T11:49:00.218Z,4.30
2022-12-04T11:51:41.031Z,4.30
2022-12-04T11:54:20.666Z,4.30
2022-12-04T11:56:55.212Z,4.20
2022-12-04T11:59:41.242Z,4.20
2022-12-04T12:02:28.601Z,4.20
2022-12-04T12:05:17.033Z,4.20
2022-12-04T12:07:58.968Z,4.20
2022-12-04T12:10:36.916Z,4.20
2022-12-04T12:13:26.774Z,4.30
2022-12-04T12:16:10.652Z,4.30
2022-12-04T12:18:59.071Z,4.30
2022-12-04T12:21:33.136Z,4.30
2022-12-04T12:24:14.865Z,4.40
2022-12-04T12:26:50.478Z,4.40
2022-12-04T12:29:43.675Z,4.40
2022-12-04T12:32:29.325Z,4.40
2022-12-04T12:34:57.220Z,4.40
2022-12-04T12:37:30.818Z,4.30
2022-12-04T12:40:03.924Z,4.30
2022-12-04T12:42:35.844Z,4.30
2022-12-04T12:45:08.483Z,4.30
2022-12-04T12:47:41.749Z,4.40
2022-12-04T12:50:17.446Z,4.40
2022-12-04T12:52:53.676Z,4.40
2022-12-04T12:55:25.118Z,4.50
2022-12-04T12:58:01.683Z,4.60
2022-12-04T13:00:32.027Z,4.50
2022-12-04T13:03:06.329Z,4.50
2022-12-04T13:05:38.523Z,4.60
2022-12-04T13:08:17.958Z,4.60
2022-12-04T13:10:49.932Z,4.60
2022-12-04T13:13:21.565Z,4.70
2022-12-04T13:15:54.766Z,4.70
2022-12-04T13:18:27.512Z,4.80
2022-12-04T13:20:58.663Z,4.70
2022-12-04T13:23:43.662Z,4.70
2022-12-04T13:26:20.528Z,4.70
2022-12-04T13:28:56.966Z,4.80
2022-12-04T13:31:32.324Z,4.70
2022-12-04T13:34:42.117Z,4.60
2022-12-04T13:37:31.761Z,4.40
2022-12-04T13:40:32.220Z,4.50
2022-12-04T13:43:20.537Z,4.50
2022-12-04T13:45:50.456Z,4.60
2022-12-04T13:48:33.644Z,4.70
2022-12-04T13:51:09.211Z,4.70
2022-12-04T13:53:40.378Z,4.80
2022-12-04T13:56:26.761Z,4.70
2022-12-04T13:59:02.331Z,4.70
2022-12-04T14:01:37.349Z,4.70
2022-12-04T14:04:05.933Z,4.60
2022-12-04T14:06:38.617Z,4.60
2022-12-04T14:09:19.046Z,4.60
2022-12-04T14:11:53.163Z,4.60
2022-12-04T14:14:27.792Z,4.60
2022-12-04T14:16:57.088Z,4.60
2022-12-04T14:19:29.752Z,4.70
2022-12-04T14:21:58.576Z,4.70
2022-12-04T14:24:36.130Z,4.70
2022-12-04T14:27:35.075Z,4.80
2022-12-04T14:30:04.085Z,4.60
2022-12-04T14:32:36.168Z,4.30
2022-12-04T14:35:05.109Z,4.30
2022-12-04T14:37:36.975Z,4.30
2022-12-04T14:40:07.727Z,4.20
2022-12-04T14:42:39.238Z,4.30
2022-12-04T14:45:21.191Z,4.20
2022-12-04T14:47:59.918Z,4.30
2022-12-04T14:50:35.166Z,4.30
2022-12-04T14:53:15.444Z,4.40
2022-12-04T14:55:52.936Z,4.50
2022-12-04T14:58:34.794Z,4.50
2022-12-04T15:01:05.334Z,4.60
2022-12-04T15:03:36.786Z,4.60
2022-12-04T15:06:07.850Z,4.70
2022-12-04T15:08:36.376Z,4.70
2022-12-04T15:11:25.405Z,4.70
2022-12-04T15:13:54.766Z,4.60
2022-12-04T15:16:24.130Z,4.70
2022-12-04T15:18:56.695Z,4.60
2022-12-04T15:21:29.324Z,4.50
2022-12-04T15:23:57.565Z,4.50
2022-12-04T15:26:26.860Z,4.50
2022-12-04T15:28:59.255Z,4.50
2022-12-04T15:31:31.687Z,4.50
2022-12-04T15:34:03.376Z,4.60
2022-12-04T15:36:44.602Z,4.60
2022-12-04T15:39:16.763Z,4.60
2022-12-04T15:41:44.835Z,4.60
2022-12-04T15:44:26.791Z,4.70
2022-12-04T15:46:56.540Z,4.70
2022-12-04T15:49:28.015Z,4.70
2022-12-04T15:52:06.830Z,4.80
2022-12-04T15:54:36.286Z,4.90
2022-12-04T15:57:08.403Z,4.80
2022-12-04T15:59:37.765Z,4.80
2022-12-04T16:02:10.107Z,4.90
2022-12-04T16:04:44.019Z,4.80
2022-12-04T16:07:22.480Z,4.70
2022-12-04T16:10:02.594Z,4.60
2022-12-04T16:12:32.834Z,4.60
2022-12-04T16:15:02.237Z,4.50
2022-12-04T16:17:32.464Z,4.50
2022-12-04T16:20:01.875Z,4.70
2022-12-04T16:22:31.399Z,4.80
2022-12-04T16:24:59.694Z,4.80
2022-12-04T16:27:27.832Z,4.80
2022-12-04T16:29:55.681Z,4.70
2022-12-04T16:32:28.606Z,4.70
2022-12-04T16:34:56.816Z,4.80
2022-12-04T16:37:25.374Z,4.70
2022-12-04T16:39:53.210Z,4.70
2022-12-04T16:42:23.408Z,4.60
2022-12-04T16:44:51.786Z,4.60
2022-12-04T16:47:20.164Z,4.70
2022-12-04T16:49:53.333Z,4.70
2022-12-04T16:52:22.109Z,4.60
2022-12-04T16:54:50.029Z,4.60
2022-12-04T16:57:17.920Z,4.60
2022-12-04T16:59:45.833Z,4.60
2022-12-04T17:02:18.323Z,4.50
2022-12-04T17:04:46.256Z,4.40
2022-12-04T17:07:15.493Z,4.40
2022-12-04T17:09:43.361Z,4.50
2022-12-04T17:12:11.314Z,4.60
2022-12-04T17:14:39.931Z,4.50
2022-12-04T17:17:07.788Z,4.50
2022-12-04T17:19:35.674Z,4.40
2022-12-04T17:22:03.711Z,4.40
2022-12-04T17:24:33.037Z,4.30
2022-12-04T17:27:01.268Z,4.40
2022-12-04T17:29:29.206Z,4.30
2022-12-04T17:31:57.248Z,4.30
2022-12-04T17:34:25.163Z,4.30
2022-12-04T17:36:53.009Z,4.30
2022-12-04T17:39:20.961Z,4.30
2022-12-04T17:41:50.174Z,4.40
2022-12-04T17:44:18.099Z,4.30
2022-12-04T17:46:46.151Z,4.10
2022-12-04T17:49:14.152Z,4.00
2022-12-04T17:51:42.210Z,4.00
2022-12-04T17:54:11.937Z,4.20
2022-12-04T17:56:44.560Z,4.30
2022-12-04T17:59:17.006Z,4.40
2022-12-04T18:01:44.987Z,4.40
2022-12-04T18:04:12.929Z,4.40
2022-12-04T18:06:42.373Z,4.30
2022-12-04T18:09:13.718Z,4.20
2022-12-04T18:11:44.105Z,4.20
2022-12-04T18:14:17.762Z,4.20
2022-12-04T18:16:47.532Z,4.00
2022-12-04T18:19:16.008Z,4.00
2022-12-04T18:21:43.989Z,4.00
2022-12-04T18:24:12.096Z,4.00
2022-12-04T18:26:42.145Z,4.00
2022-12-04T18:29:13.060Z,4.00
2022-12-04T18:31:42.544Z,4.00
2022-12-04T18:34:11.262Z,4.00
2022-12-04T18:36:40.602Z,3.90
2022-12-04T18:39:12.070Z,3.90
2022-12-04T18:41:40.393Z,3.80
2022-12-04T18:44:08.357Z,3.80
2022-12-04T18:46:36.309Z,3.80
2022-12-04T18:49:06.089Z,3.80
2022-12-04T18:51:36.087Z,3.90
2022-12-04T18:54:06.285Z,4.00
2022-12-04T18:56:35.746Z,4.00
2022-12-04T18:59:05.735Z,4.10
2022-12-04T19:01:33.795Z,4.10
2022-12-04T19:04:03.860Z,4.10
2022-12-04T19:06:35.060Z,4.00
2022-12-04T19:09:05.661Z,4.00
2022-12-04T19:11:34.059Z,3.90
2022-12-04T19:14:07.143Z,3.90
2022-12-04T19:16:41.692Z,3.90
2022-12-04T19:19:10.692Z,3.90
2022-12-04T19:21:40.555Z,3.90
2022-12-04T19:24:10.429Z,4.00
2022-12-04T19:26:38.669Z,4.00
2022-12-04T19:29:07.985Z,4.00
2022-12-04T19:31:38.006Z,4.00
2022-12-04T19:34:07.674Z,4.10
2022-12-04T19:36:36.399Z,4.20
2022-12-04T19:39:07.088Z,4.20
2022-12-04T19:41:37.132Z,4.20
2022-12-04T19:44:20.087Z,4.10
2022-12-04T19:46:53.638Z,4.10
2022-12-04T19:49:21.515Z,4.20
2022-12-04T19:51:49.668Z,4.20
2022-12-04T19:54:19.423Z,4.20
2022-12-04T19:56:51.025Z,4.10
2022-12-04T19:59:20.123Z,4.10
2022-12-04T20:01:48.237Z,4.10
2022-12-04T20:04:16.418Z,4.00
2022-12-04T20:06:46.281Z,4.00
2022-12-04T20:09:16.126Z,4.00
2022-12-04T20:11:45.487Z,4.00
2022-12-04T20:14:13.533Z,4.00
2022-12-04T20:16:41.985Z,4.00
2022-12-04T20:19:14.120Z,3.90
2022-12-04T20:21:42.067Z,4.00
2022-12-04T20:24:13.087Z,4.00
2022-12-04T20:26:43.356Z,4.00
2022-12-04T20:29:14.861Z,4.00
2022-12-04T20:31:45.630Z,4.00
2022-12-04T20:34:16.592Z,4.00
2022-12-04T20:36:47.019Z,4.00
2022-12-04T20:39:16.121Z,4.00
2022-12-04T20:41:44.217Z,4.00
2022-12-04T20:44:16.746Z,4.00
2022-12-04T20:46:45.279Z,4.00
2022-12-04T20:49:20.622Z,4.00
2022-12-04T20:51:49.878Z,4.10
2022-12-04T20:54:19.565Z,4.10
2022-12-04T20:56:48.996Z,4.20
2022-12-04T20:59:20.339Z,4.20
2022-12-04T21:01:49.049Z,4.20
2022-12-04T21:04:17.764Z,4.20
2022-12-04T21:06:47.556Z,4.20
2022-12-04T21:09:18.122Z,4.20
2022-12-04T21:11:48.099Z,4.10
2022-12-04T21:14:37.736Z,4.10
2022-12-04T21:17:07.386Z,4.10
2022-12-04T21:19:35.280Z,4.20
2022-12-04T21:22:03.163Z,4.30
2022-12-04T21:24:36.204Z,4.30
2022-12-04T21:27:04.230Z,4.20
2022-12-04T21:29:34.004Z,4.10
2022-12-04T21:32:01.929Z,4.20
2022-12-04T21:34:29.888Z,4.10
2022-12-04T21:36:57.957Z,4.10
2022-12-04T21:39:26.050Z,4.20
2022-12-04T21:42:12.092Z,4.30
2022-12-04T21:44:41.265Z,4.40
2022-12-04T21:47:09.130Z,4.30
2022-12-04T21:49:36.982Z,4.20
2022-12-04T21:52:04.944Z,4.30
2022-12-04T21:54:32.802Z,4.30
2022-12-04T21:57:00.873Z,4.30
2022-12-04T21:59:28.941Z,4.30
2022-12-04T22:01:58.218Z,4.20
2022-12-04T22:04:26.237Z,4.20
2022-12-04T22:06:54.113Z,4.20
2022-12-04T22:09:21.969Z,4.10
2022-12-04T22:11:49.815Z,4.10
2022-12-04T22:14:17.686Z,4.10
2022-12-04T22:16:45.644Z,4.20
2022-12-04T22:19:15.477Z,4.20
2022-12-04T22:21:43.609Z,4.20
2022-12-04T22:24:11.686Z,4.30
2022-12-04T22:26:40.002Z,4.40
2022-12-04T22:29:34.250Z,4.20
2022-12-04T22:31:56.064Z,4.20
2022-12-04T22:34:25.444Z,4.20
2022-12-04T22:36:53.374Z,4.20
2022-12-04T22:39:21.274Z,4.10
2022-12-04T22:41:49.139Z,4.10
2022-12-04T22:44:17.060Z,4.00
2022-12-04T22:46:45.008Z,4.00
2022-12-04T22:49:12.901Z,4.00
2022-12-04T22:51:42.249Z,3.90
2022-12-04T22:54:14.403Z,3.80
2022-12-04T22:56:43.476Z,3.80
2022-12-04T22:59:11.396Z,3.70
2022-12-04T23:01:39.265Z,3.70
2022-12-04T23:04:07.210Z,3.80
2022-12-04T23:06:35.407Z,3.80
2022-12-04T23:09:07.088Z,3.80
2022-12-04T23:11:35.938Z,3.80
2022-12-04T23:14:06.633Z,3.90
2022-12-04T23:16:37.046Z,3.80
2022-12-04T23:19:05.382Z,3.80
2022-12-04T23:21:33.562Z,3.90
2022-12-04T23:24:01.460Z,4.00
2022-12-04T23:26:32.687Z,4.10
2022-12-04T23:29:01.636Z,3.90
2022-12-04T23:31:30.052Z,3.70
2022-12-04T23:33:58.200Z,3.70
2022-12-04T23:36:26.210Z,3.60
2022-12-04T23:38:54.301Z,3.70
2022-12-04T23:41:24.161Z,3.70
2022-12-04T23:43:54.969Z,3.70
2022-12-04T23:46:24.902Z,3.80
2022-12-04T23:48:52.799Z,3.80
2022-12-04T23:51:21.255Z,3.80
2022-12-04T23:53:50.799Z,3.70
2022-12-04T23:56:21.297Z,3.70
2022-12-04T23:58:50.681Z,3.70
